createdAt,value
2017-11-03T00:01:15.247Z,21.63
2017-11-03T00:03:42.754Z,20.03
2017-11-03T00:06:11.048Z,19.50
2017-11-03T00:08:38.568Z,21.70
2017-11-03T00:11:06.192Z,20.37
2017-11-03T00:13:33.700Z,21.33
2017-11-03T00:16:01.227Z,19.97
2017-11-03T00:18:28.734Z,22.97
2017-11-03T00:20:57.023Z,19.97
2017-11-03T00:23:24.531Z,21.60
2017-11-03T00:25:52.059Z,20.80
2017-11-03T00:28:19.563Z,20.60
2017-11-03T00:30:47.155Z,21.50
2017-11-03T00:33:14.663Z,21.30
2017-11-03T00:35:42.190Z,20.97
2017-11-03T00:38:09.700Z,20.90
2017-11-03T00:40:37.227Z,20.53
2017-11-03T00:43:05.099Z,21.60
2017-11-03T00:45:32.623Z,20.23
2017-11-03T00:48:00.136Z,19.90
2017-11-03T00:50:27.655Z,19.13
2017-11-03T00:52:55.211Z,20.17
2017-11-03T00:55:22.725Z,21.13
2017-11-03T00:57:51.032Z,19.80
2017-11-03T01:00:18.587Z,21.00
2017-11-03T01:02:46.126Z,19.47
2017-11-03T01:05:14.400Z,20.93
2017-11-03T01:07:42.794Z,20.60
2017-11-03T01:10:10.302Z,20.10
2017-11-03T01:12:37.827Z,20.90
2017-11-03T01:15:05.372Z,18.10
2017-11-03T01:17:32.927Z,20.30
2017-11-03T01:20:00.440Z,21.53
2017-11-03T01:22:27.965Z,21.00
2017-11-03T01:24:55.487Z,19.53
2017-11-03T01:27:23.791Z,19.20
2017-11-03T01:29:51.294Z,20.73
2017-11-03T01:32:18.819Z,20.90
2017-11-03T01:34:46.327Z,19.80
2017-11-03T01:37:14.619Z,21.00
2017-11-03T01:39:42.895Z,18.97
2017-11-03T01:42:11.185Z,21.73
2017-11-03T01:44:38.693Z,22.37
2017-11-03T01:47:06.243Z,21.80
2017-11-03T01:49:33.747Z,21.53
2017-11-03T01:52:01.260Z,22.60
2017-11-03T01:54:28.783Z,21.53
2017-11-03T01:56:56.288Z,22.80
2017-11-03T01:59:23.818Z,24.43
2017-11-03T02:01:51.348Z,24.13
2017-11-03T02:04:18.875Z,23.10
2017-11-03T02:06:47.198Z,22.00
2017-11-03T02:09:14.740Z,20.50
2017-11-03T02:11:42.247Z,21.90
2017-11-03T02:14:09.772Z,22.30
2017-11-03T02:16:37.286Z,22.20
2017-11-03T02:19:05.579Z,21.50
2017-11-03T02:21:33.877Z,22.57
2017-11-03T02:24:01.423Z,22.77
2017-11-03T02:26:29.082Z,21.80
2017-11-03T02:28:56.647Z,21.07
2017-11-03T02:31:24.207Z,21.20
2017-11-03T02:33:52.509Z,22.13
2017-11-03T02:36:20.018Z,22.20
2017-11-03T02:38:48.312Z,21.33
2017-11-03T02:41:15.818Z,20.60
2017-11-03T02:43:44.072Z,20.87
2017-11-03T02:46:11.579Z,23.00
2017-11-03T02:48:39.920Z,21.93
2017-11-03T02:51:07.750Z,20.83
2017-11-03T02:53:35.259Z,20.53
2017-11-03T02:56:02.788Z,20.77
2017-11-03T02:58:30.298Z,18.93
2017-11-03T03:00:58.583Z,21.27
2017-11-03T03:03:26.864Z,20.27
2017-11-03T03:05:55.572Z,21.40
2017-11-03T03:08:23.123Z,21.00
2017-11-03T03:10:50.647Z,21.50
2017-11-03T03:13:18.923Z,21.57
2017-11-03T03:15:47.224Z,20.47
2017-11-03T03:18:14.734Z,21.30
2017-11-03T03:20:42.264Z,20.77
2017-11-03T03:23:09.771Z,21.20
2017-11-03T03:25:38.063Z,21.17
2017-11-03T03:28:06.334Z,20.70
2017-11-03T03:30:34.623Z,21.40
2017-11-03T03:33:02.127Z,22.20
2017-11-03T03:35:29.650Z,20.70
2017-11-03T03:37:57.160Z,21.33
2017-11-03T03:40:24.776Z,19.40
2017-11-03T03:42:52.278Z,19.47
2017-11-03T03:45:19.798Z,19.97
2017-11-03T03:47:47.307Z,21.47
2017-11-03T03:50:14.842Z,20.43
2017-11-03T03:52:42.361Z,18.67
2017-11-03T03:55:09.906Z,20.00
2017-11-03T03:57:37.411Z,20.77
2017-11-03T04:00:04.953Z,18.50
2017-11-03T04:02:32.458Z,19.40
2017-11-03T04:05:00.733Z,18.70
2017-11-03T04:07:29.022Z,18.80
2017-11-03T04:09:57.292Z,20.30
2017-11-03T04:12:25.583Z,18.93
2017-11-03T04:14:53.150Z,19.10
2017-11-03T04:17:20.670Z,19.17
2017-11-03T04:19:48.176Z,17.70
2017-11-03T04:22:15.694Z,19.33
2017-11-03T04:24:43.999Z,20.03
2017-11-03T04:27:11.518Z,19.50
2017-11-03T04:29:39.024Z,18.50
2017-11-03T04:32:06.547Z,17.30
2017-11-03T04:34:34.819Z,18.90
2017-11-03T04:37:03.124Z,21.03
2017-11-03T04:39:30.626Z,18.97
2017-11-03T04:41:58.243Z,18.53
2017-11-03T04:44:25.799Z,18.13
2017-11-03T04:46:53.311Z,19.23
2017-11-03T04:49:20.840Z,18.67
2017-11-03T04:51:48.351Z,16.33
2017-11-03T04:54:16.634Z,16.43
2017-11-03T04:56:44.905Z,16.97
2017-11-03T04:59:13.196Z,17.70
2017-11-03T05:01:40.763Z,15.77
2017-11-03T05:04:08.319Z,16.47
2017-11-03T05:06:35.827Z,18.50
2017-11-03T05:09:03.359Z,14.90
2017-11-03T05:11:30.895Z,15.80
2017-11-03T05:13:58.419Z,17.40
2017-11-03T05:16:26.011Z,17.30
2017-11-03T05:18:53.570Z,17.40
2017-11-03T05:21:21.079Z,18.17
2017-11-03T05:23:48.610Z,17.53
2017-11-03T05:26:16.132Z,18.77
2017-11-03T05:28:44.435Z,18.23
2017-11-03T05:31:11.943Z,15.77
2017-11-03T05:33:39.474Z,16.27
2017-11-03T05:36:06.997Z,16.70
2017-11-03T05:38:34.519Z,15.80
2017-11-03T05:41:02.025Z,16.63
2017-11-03T05:43:29.548Z,16.40
2017-11-03T05:45:57.818Z,17.30
2017-11-03T05:48:26.223Z,19.00
2017-11-03T05:50:53.737Z,17.00
2017-11-03T05:53:21.268Z,17.50
2017-11-03T05:55:48.775Z,18.00
2017-11-03T05:58:17.068Z,16.70
2017-11-03T06:00:44.579Z,18.80
2017-11-03T06:03:12.083Z,15.40
2017-11-03T06:05:39.607Z,17.30
2017-11-03T06:08:07.207Z,15.47
2017-11-03T06:10:34.731Z,15.20
2017-11-03T06:13:02.238Z,16.90
2017-11-03T06:15:29.767Z,16.00
2017-11-03T06:17:58.040Z,17.40
2017-11-03T06:20:26.331Z,18.43
2017-11-03T06:22:53.852Z,16.90
2017-11-03T06:25:21.467Z,17.77
2017-11-03T06:27:48.979Z,16.10
2017-11-03T06:30:16.512Z,16.70
2017-11-03T06:32:44.023Z,17.50
2017-11-03T06:35:11.546Z,20.67
2017-11-03T06:37:39.055Z,21.60
2017-11-03T06:40:06.807Z,22.93
2017-11-03T06:42:34.538Z,21.93
2017-11-03T06:45:02.144Z,23.40
2017-11-03T06:47:29.671Z,22.77
2017-11-03T06:49:57.942Z,22.60
2017-11-03T06:52:26.238Z,22.23
2017-11-03T06:54:53.766Z,20.63
2017-11-03T06:57:21.287Z,22.43
2017-11-03T06:59:48.839Z,21.63
2017-11-03T07:02:16.374Z,20.53
2017-11-03T07:04:43.900Z,22.77
2017-11-03T07:07:11.490Z,22.93
2017-11-03T07:09:39.000Z,21.80
2017-11-03T07:12:08.962Z,25.23
2017-11-03T07:14:36.472Z,24.50
2017-11-03T07:17:04.626Z,23.90
2017-11-03T07:19:32.134Z,33.30
2017-11-03T07:22:00.428Z,25.07
2017-11-03T07:24:27.996Z,23.97
2017-11-03T07:26:55.523Z,24.03
2017-11-03T07:29:23.795Z,24.97
2017-11-03T07:31:52.087Z,24.53
2017-11-03T07:34:20.371Z,24.40
2017-11-03T07:36:47.931Z,25.53
2017-11-03T07:39:15.492Z,28.17
2017-11-03T07:41:43.045Z,29.20
2017-11-03T07:44:10.551Z,29.47
2017-11-03T07:46:38.166Z,27.63
2017-11-03T07:49:05.671Z,29.40
2017-11-03T07:51:33.211Z,28.50
2017-11-03T07:54:00.737Z,23.40
2017-11-03T07:56:28.302Z,23.23
2017-11-03T07:58:55.811Z,22.63
2017-11-03T08:01:23.420Z,20.40
2017-11-03T08:03:50.953Z,21.27
2017-11-03T08:06:19.232Z,23.03
2017-11-03T08:08:47.522Z,29.70
2017-11-03T08:11:15.795Z,28.13
2017-11-03T08:13:44.087Z,25.60
2017-11-03T08:16:11.599Z,25.50
2017-11-03T08:18:39.122Z,25.70
2017-11-03T08:21:06.664Z,27.30
2017-11-03T08:23:34.200Z,28.50
2017-11-03T08:26:01.732Z,28.43
2017-11-03T08:28:29.336Z,29.70
2017-11-03T08:30:56.908Z,28.83
2017-11-03T08:33:24.430Z,28.30
2017-11-03T08:35:52.707Z,28.77
2017-11-03T08:38:21.211Z,31.47
2017-11-03T08:40:48.715Z,32.33
2017-11-03T08:43:16.235Z,27.83
2017-11-03T08:45:43.743Z,28.97
2017-11-03T08:48:11.326Z,29.33
2017-11-03T08:50:40.267Z,30.10
2017-11-03T08:53:07.777Z,28.87
2017-11-03T08:55:36.068Z,31.17
2017-11-03T08:58:03.574Z,30.17
2017-11-03T09:00:31.611Z,29.60
2017-11-03T09:02:59.123Z,30.87
2017-11-03T09:05:26.715Z,31.40
2017-11-03T09:07:54.230Z,29.43
2017-11-03T09:10:21.750Z,32.80
2017-11-03T09:12:49.255Z,32.10
2017-11-03T09:15:16.846Z,28.07
2017-11-03T09:17:44.362Z,28.43
2017-11-03T09:20:11.967Z,31.43
2017-11-03T09:22:39.479Z,30.10
2017-11-03T09:25:07.002Z,32.43
2017-11-03T09:27:34.510Z,38.53
2017-11-03T09:30:02.820Z,46.63
2017-11-03T09:32:30.330Z,40.93
2017-11-03T09:34:57.856Z,56.60
2017-11-03T09:37:25.366Z,48.47
2017-11-03T09:39:53.655Z,50.13
2017-11-03T09:42:21.926Z,37.97
2017-11-03T09:44:50.218Z,31.80
2017-11-03T09:47:17.728Z,29.10
2017-11-03T09:49:45.331Z,32.87
2017-11-03T09:52:12.898Z,31.73
2017-11-03T09:54:40.428Z,31.90
2017-11-03T09:57:08.703Z,32.03
2017-11-03T09:59:37.103Z,30.97
2017-11-03T10:02:05.017Z,30.97
2017-11-03T10:04:32.530Z,31.67
2017-11-03T10:07:00.051Z,28.87
2017-11-03T10:09:27.647Z,29.00
2017-11-03T10:11:55.178Z,30.47
2017-11-03T10:14:23.452Z,30.73
2017-11-03T10:16:50.980Z,30.00
2017-11-03T10:19:18.488Z,30.37
2017-11-03T10:21:46.027Z,31.40
2017-11-03T10:24:14.349Z,28.77
2017-11-03T10:26:41.875Z,29.90
2017-11-03T10:29:10.151Z,28.00
2017-11-03T10:31:38.443Z,27.67
2017-11-03T10:34:05.949Z,28.20
2017-11-03T10:36:33.565Z,27.20
2017-11-03T10:39:01.080Z,26.33
2017-11-03T10:41:28.632Z,28.90
2017-11-03T10:43:56.139Z,25.30
2017-11-03T10:46:23.683Z,26.93
2017-11-03T10:48:51.987Z,25.30
2017-11-03T10:51:19.527Z,26.73
2017-11-03T10:53:47.051Z,28.63
2017-11-03T10:56:14.555Z,29.37
2017-11-03T10:58:42.117Z,28.57
2017-11-03T11:01:09.666Z,27.70
2017-11-03T11:03:37.191Z,28.70
2017-11-03T11:06:05.472Z,28.10
2017-11-03T11:08:33.771Z,26.37
2017-11-03T11:11:01.279Z,25.13
2017-11-03T11:13:28.803Z,23.87
2017-11-03T11:15:56.351Z,24.83
2017-11-03T11:18:23.871Z,24.77
2017-11-03T11:20:51.489Z,23.10
2017-11-03T11:23:19.010Z,22.67
2017-11-03T11:25:47.298Z,23.33
2017-11-03T11:28:14.823Z,21.27
2017-11-03T11:30:42.335Z,22.90
2017-11-03T11:33:09.854Z,22.73
2017-11-03T11:35:38.151Z,21.10
2017-11-03T11:38:05.691Z,23.33
2017-11-03T11:40:33.987Z,21.57
2017-11-03T11:43:01.511Z,20.80
2017-11-03T11:45:29.028Z,21.27
2017-11-03T11:47:56.575Z,20.90
2017-11-03T11:50:24.103Z,19.97
2017-11-03T11:52:52.394Z,21.80
2017-11-03T11:55:19.919Z,21.40
2017-11-03T11:57:47.429Z,19.83
2017-11-03T12:00:14.993Z,20.70
2017-11-03T12:02:42.866Z,22.53
2017-11-03T12:05:10.395Z,20.07
2017-11-03T12:07:37.907Z,21.40
2017-11-03T12:10:05.436Z,21.10
2017-11-03T12:12:32.948Z,26.63
2017-11-03T12:15:01.243Z,21.27
2017-11-03T12:17:28.817Z,22.30
2017-11-03T12:19:56.343Z,21.47
2017-11-03T12:22:24.639Z,22.20
2017-11-03T12:24:52.163Z,21.50
2017-11-03T12:27:19.670Z,21.87
2017-11-03T12:29:47.199Z,21.07
2017-11-03T12:32:15.478Z,19.87
2017-11-03T12:34:43.052Z,18.83
2017-11-03T12:37:10.563Z,18.27
2017-11-03T12:39:38.159Z,18.50
2017-11-03T12:42:05.669Z,18.30
2017-11-03T12:44:33.199Z,18.50
2017-11-03T12:47:00.708Z,19.83
2017-11-03T12:49:28.216Z,17.67
2017-11-03T12:51:55.746Z,18.27
2017-11-03T12:54:24.044Z,18.60
2017-11-03T12:56:51.612Z,19.20
2017-11-03T12:59:19.128Z,19.00
2017-11-03T13:01:47.420Z,18.67
2017-11-03T13:04:14.939Z,16.77
2017-11-03T13:06:42.476Z,17.17
2017-11-03T13:09:09.987Z,19.47
2017-11-03T13:11:38.379Z,18.47
2017-11-03T13:14:05.887Z,18.00
2017-11-03T13:16:33.410Z,19.67
2017-11-03T13:19:00.911Z,18.90
2017-11-03T13:21:28.443Z,17.83
2017-11-03T13:23:55.946Z,16.60
2017-11-03T13:26:24.246Z,16.53
2017-11-03T13:28:51.752Z,17.53
2017-11-03T13:31:19.373Z,16.57
2017-11-03T13:33:46.884Z,16.77
2017-11-03T13:36:14.392Z,16.33
2017-11-03T13:38:41.918Z,14.83
2017-11-03T13:41:10.187Z,16.37
2017-11-03T13:43:38.600Z,19.57
2017-11-03T13:46:06.160Z,17.50
2017-11-03T13:48:33.679Z,17.60
2017-11-03T13:51:01.982Z,18.23
2017-11-03T13:53:29.507Z,17.73
2017-11-03T13:55:57.099Z,17.83
2017-11-03T13:58:24.618Z,16.97
2017-11-03T14:00:52.119Z,18.57
2017-11-03T14:03:19.643Z,17.37
2017-11-03T14:05:47.160Z,17.27
2017-11-03T14:08:14.692Z,17.80
2017-11-03T14:10:42.202Z,16.73
2017-11-03T14:13:09.736Z,17.63
2017-11-03T14:15:37.252Z,19.03
2017-11-03T14:18:05.647Z,15.00
2017-11-03T14:20:33.202Z,14.70
2017-11-03T14:23:00.763Z,15.73
2017-11-03T14:25:28.270Z,14.73
2017-11-03T14:27:55.779Z,15.03
2017-11-03T14:30:23.298Z,14.50
2017-11-03T14:32:50.826Z,13.73
2017-11-03T14:35:18.361Z,13.57
2017-11-03T14:37:46.330Z,13.53
2017-11-03T14:40:13.859Z,13.17
2017-11-03T14:42:42.147Z,14.33
2017-11-03T14:45:09.715Z,12.80
2017-11-03T14:47:37.271Z,13.17
2017-11-03T14:50:04.791Z,13.67
2017-11-03T14:52:32.296Z,13.27
2017-11-03T14:54:59.823Z,16.17
2017-11-03T14:57:28.102Z,13.93
2017-11-03T14:59:56.387Z,12.50
2017-11-03T15:02:24.663Z,11.77
2017-11-03T15:04:52.186Z,11.70
2017-11-03T15:07:19.744Z,11.50
2017-11-03T15:09:47.350Z,11.03
2017-11-03T15:12:14.859Z,11.30
2017-11-03T15:14:42.888Z,12.03
2017-11-03T15:17:10.398Z,11.20
2017-11-03T15:19:38.682Z,12.50
2017-11-03T15:22:06.190Z,11.87
2017-11-03T15:24:33.733Z,10.63
2017-11-03T15:27:01.292Z,11.50
2017-11-03T15:29:28.800Z,11.73
2017-11-03T15:31:56.333Z,11.33
2017-11-03T15:34:23.843Z,12.00
2017-11-03T15:36:52.134Z,12.30
2017-11-03T15:39:19.703Z,11.90
2017-11-03T15:41:47.231Z,13.93
2017-11-03T15:44:15.503Z,13.43
2017-11-03T15:46:43.795Z,14.30
2017-11-03T15:49:12.732Z,13.20
2017-11-03T15:51:40.256Z,13.03
2017-11-03T15:54:07.777Z,13.93
2017-11-03T15:56:35.303Z,13.77
2017-11-03T15:59:02.811Z,14.63
2017-11-03T16:01:31.107Z,13.00
2017-11-03T16:03:58.662Z,14.60
2017-11-03T16:06:26.211Z,14.77
2017-11-03T16:08:54.483Z,12.70
2017-11-03T16:11:22.754Z,15.87
2017-11-03T16:13:51.047Z,15.70
2017-11-03T16:16:18.615Z,15.43
2017-11-03T16:18:46.139Z,13.57
2017-11-03T16:21:13.647Z,15.50
2017-11-03T16:23:41.534Z,14.73
2017-11-03T16:26:09.043Z,15.27
2017-11-03T16:28:37.330Z,16.90
2017-11-03T16:31:04.837Z,17.50
2017-11-03T16:33:32.452Z,18.20
2017-11-03T16:35:59.959Z,18.00
2017-11-03T16:38:27.563Z,18.00
2017-11-03T16:40:55.075Z,20.50
2017-11-03T16:43:22.599Z,17.83
2017-11-03T16:45:50.104Z,18.17
2017-11-03T16:48:17.699Z,17.80
2017-11-03T16:50:45.600Z,20.20
2017-11-03T16:53:13.123Z,19.80
2017-11-03T16:55:40.626Z,19.93
2017-11-03T16:58:08.158Z,18.83
2017-11-03T17:00:35.664Z,19.17
2017-11-03T17:03:03.195Z,19.60
2017-11-03T17:05:30.703Z,19.67
2017-11-03T17:07:58.286Z,21.90
2017-11-03T17:10:25.791Z,23.10
2017-11-03T17:12:53.315Z,20.10
2017-11-03T17:15:20.851Z,22.27
2017-11-03T17:17:48.396Z,22.00
2017-11-03T17:20:16.668Z,21.10
2017-11-03T17:22:44.930Z,21.63
2017-11-03T17:25:13.218Z,18.60
2017-11-03T17:27:41.490Z,18.20
2017-11-03T17:30:09.778Z,18.13
2017-11-03T17:32:37.279Z,17.90
2017-11-03T17:35:05.314Z,18.17
2017-11-03T17:37:32.823Z,14.37
2017-11-03T17:40:00.346Z,15.40
2017-11-03T17:42:27.859Z,14.80
2017-11-03T17:44:56.151Z,15.47
2017-11-03T17:47:24.427Z,14.27
2017-11-03T17:49:52.712Z,16.33
2017-11-03T17:52:20.683Z,15.80
2017-11-03T17:54:48.239Z,15.70
2017-11-03T17:57:15.750Z,15.43
2017-11-03T17:59:43.359Z,15.03
2017-11-03T18:02:10.866Z,15.97
2017-11-03T18:04:38.395Z,14.83
2017-11-03T18:07:05.899Z,16.50
2017-11-03T18:09:33.485Z,14.80
2017-11-03T18:12:01.050Z,14.90
2017-11-03T18:14:28.562Z,13.80
2017-11-03T18:16:56.519Z,15.03
2017-11-03T18:19:24.078Z,15.07
2017-11-03T18:21:51.595Z,14.30
2017-11-03T18:24:19.102Z,15.53
2017-11-03T18:26:46.815Z,14.63
2017-11-03T18:29:14.678Z,15.60
2017-11-03T18:31:42.257Z,16.00
2017-11-03T18:34:09.808Z,15.63
2017-11-03T18:36:37.355Z,16.97
2017-11-03T18:39:04.867Z,19.80
2017-11-03T18:41:32.442Z,20.10
2017-11-03T18:43:59.951Z,19.97
2017-11-03T18:46:27.470Z,18.03
2017-11-03T18:48:55.752Z,18.30
2017-11-03T18:51:23.283Z,18.03
2017-11-03T18:53:50.853Z,19.30
2017-11-03T18:56:18.383Z,19.60
2017-11-03T18:58:45.953Z,18.53
2017-11-03T19:01:13.487Z,18.30
2017-11-03T19:03:40.998Z,15.77
2017-11-03T19:06:09.288Z,16.20
2017-11-03T19:08:37.527Z,17.70
2017-11-03T19:11:05.042Z,19.13
2017-11-03T19:13:32.543Z,17.23
2017-11-03T19:16:00.058Z,19.20
2017-11-03T19:18:27.561Z,17.73
2017-11-03T19:20:55.115Z,17.50
2017-11-03T19:23:22.671Z,17.27
2017-11-03T19:25:50.172Z,20.97
2017-11-03T19:28:17.735Z,21.23
2017-11-03T19:30:45.244Z,17.20
2017-11-03T19:33:12.767Z,18.40
2017-11-03T19:35:40.323Z,19.13
2017-11-03T19:38:07.900Z,19.77
2017-11-03T19:40:35.450Z,19.20
2017-11-03T19:43:02.987Z,17.83
2017-11-03T19:45:30.504Z,20.23
2017-11-03T19:47:58.088Z,19.57
2017-11-03T19:50:25.659Z,22.10
2017-11-03T19:52:53.251Z,21.57
2017-11-03T19:55:20.758Z,22.63
2017-11-03T19:57:49.097Z,21.80
2017-11-03T20:00:16.665Z,20.63
2017-11-03T20:02:44.298Z,20.90
2017-11-03T20:05:11.798Z,20.60
2017-11-03T20:07:39.319Z,19.90
2017-11-03T20:10:06.823Z,18.50
2017-11-03T20:12:34.371Z,15.20
2017-11-03T20:15:02.022Z,19.10
2017-11-03T20:17:29.580Z,18.73
2017-11-03T20:19:57.868Z,15.23
2017-11-03T20:22:25.388Z,14.20
2017-11-03T20:24:52.908Z,16.40
2017-11-03T20:27:21.184Z,16.60
2017-11-03T20:29:49.476Z,16.20
2017-11-03T20:32:17.036Z,15.17
2017-11-03T20:34:44.607Z,15.47
2017-11-03T20:37:12.160Z,14.87
2017-11-03T20:39:39.679Z,15.57
2017-11-03T20:42:07.183Z,16.37
2017-11-03T20:44:34.771Z,17.07
2017-11-03T20:47:02.431Z,16.90
2017-11-03T20:49:30.039Z,14.50
2017-11-03T20:51:58.363Z,15.20
2017-11-03T20:54:25.895Z,16.70
2017-11-03T20:56:53.399Z,15.43
2017-11-03T20:59:20.975Z,19.33
2017-11-03T21:01:49.247Z,17.97
2017-11-03T21:04:17.590Z,16.63
2017-11-03T21:06:45.167Z,16.37
2017-11-03T21:09:12.819Z,15.40
2017-11-03T21:11:40.383Z,17.30
2017-11-03T21:14:07.954Z,15.77
2017-11-03T21:16:35.907Z,16.27
2017-11-03T21:19:03.474Z,15.47
2017-11-03T21:21:31.179Z,16.77
2017-11-03T21:23:58.738Z,16.17
2017-11-03T21:26:26.263Z,15.50
2017-11-03T21:28:53.759Z,15.80
2017-11-03T21:31:21.375Z,17.97
2017-11-03T21:33:48.883Z,17.03
2017-11-03T21:36:16.458Z,16.73
2017-11-03T21:38:44.019Z,16.83
2017-11-03T21:41:11.585Z,15.67
2017-11-03T21:43:39.083Z,16.03
2017-11-03T21:46:07.371Z,15.30
2017-11-03T21:48:35.646Z,18.73
2017-11-03T21:51:03.982Z,15.87
2017-11-03T21:53:31.490Z,14.97
2017-11-03T21:55:59.014Z,14.37
2017-11-03T21:58:27.455Z,14.23
2017-11-03T22:00:55.039Z,16.30
2017-11-03T22:03:22.547Z,16.60
2017-11-03T22:05:50.607Z,17.60
2017-11-03T22:08:18.907Z,17.67
2017-11-03T22:10:46.419Z,15.87
2017-11-03T22:13:13.954Z,20.57
2017-11-03T22:15:41.459Z,39.07
2017-11-03T22:18:09.747Z,25.87
2017-11-03T22:20:37.255Z,20.80
2017-11-03T22:23:04.782Z,17.50
2017-11-03T22:25:32.322Z,18.40
2017-11-03T22:28:00.254Z,16.70
2017-11-03T22:30:27.755Z,16.23
2017-11-03T22:32:55.307Z,17.37
2017-11-03T22:35:22.819Z,16.73
2017-11-03T22:37:50.386Z,15.00
2017-11-03T22:40:17.941Z,15.60
2017-11-03T22:42:45.515Z,16.27
2017-11-03T22:45:13.782Z,16.50
2017-11-03T22:47:43.253Z,14.10
2017-11-03T22:50:10.754Z,15.23
2017-11-03T22:52:39.100Z,15.40
2017-11-03T22:55:06.624Z,15.70
2017-11-03T22:57:34.130Z,16.87
2017-11-03T23:00:01.689Z,15.43
2017-11-03T23:02:29.195Z,14.50
2017-11-03T23:04:56.714Z,15.57
2017-11-03T23:07:24.219Z,16.80
2017-11-03T23:09:51.734Z,16.70
2017-11-03T23:12:19.323Z,14.90
2017-11-03T23:14:46.846Z,17.27
2017-11-03T23:17:14.355Z,16.20
2017-11-03T23:19:41.876Z,15.30
2017-11-03T23:22:10.149Z,17.00
2017-11-03T23:24:38.435Z,17.57
2017-11-03T23:27:06.699Z,20.87
2017-11-03T23:29:34.986Z,17.97
2017-11-03T23:32:03.254Z,17.73
2017-11-03T23:34:31.556Z,18.03
2017-11-03T23:36:59.058Z,17.90
2017-11-03T23:39:26.595Z,15.83
2017-11-03T23:41:54.100Z,16.40
2017-11-03T23:44:22.376Z,16.57
2017-11-03T23:46:50.675Z,17.67
2017-11-03T23:49:18.175Z,16.40
2017-11-03T23:51:45.795Z,16.90
2017-11-03T23:54:14.003Z,17.83
2017-11-03T23:56:41.518Z,18.93
2017-11-03T23:59:09.786Z,16.07
